createdAt,value
2023-01-22T00:08:14.888Z,45.70
2023-01-22T00:10:49.190Z,47.10
2023-01-22T00:13:16.162Z,43.30
2023-01-22T00:15:43.086Z,43.90
2023-01-22T00:18:10.273Z,42.40
2023-01-22T00:20:37.273Z,42.50
2023-01-22T00:23:04.219Z,45.30
2023-01-22T00:25:31.139Z,40.60
2023-01-22T00:27:58.398Z,44.30
2023-01-22T00:30:25.310Z,47.50
2023-01-22T00:32:52.206Z,47.60
2023-01-22T00:35:19.149Z,47.20
2023-01-22T00:37:48.296Z,49.50
2023-01-22T00:40:16.558Z,47.80
2023-01-22T00:42:43.718Z,41.20
2023-01-22T00:45:11.961Z,40.10
2023-01-22T00:47:39.048Z,39.30
2023-01-22T00:50:06.524Z,37.00
2023-01-22T00:52:33.566Z,40.80
2023-01-22T00:55:00.489Z,43.30
2023-01-22T00:57:27.451Z,44.60
2023-01-22T00:59:54.395Z,52.10
2023-01-22T01:02:22.162Z,45.30
2023-01-22T01:04:49.669Z,42.40
2023-01-22T01:07:16.973Z,41.40
2023-01-22T01:09:44.428Z,45.10
2023-01-22T01:12:11.395Z,41.30
2023-01-22T01:14:38.447Z,39.60
2023-01-22T01:17:05.654Z,38.30
2023-01-22T01:19:32.763Z,42.50
2023-01-22T01:22:00.111Z,37.70
2023-01-22T01:24:27.053Z,35.30
2023-01-22T01:26:54.044Z,35.90
2023-01-22T01:29:21.011Z,34.90
2023-01-22T01:31:51.760Z,33.70
2023-01-22T01:34:18.873Z,35.70
2023-01-22T01:36:49.133Z,35.40
2023-01-22T01:39:16.687Z,35.30
2023-01-22T01:41:43.602Z,34.20
2023-01-22T01:44:11.782Z,35.30
2023-01-22T01:46:41.901Z,33.50
2023-01-22T01:49:15.446Z,32.70
2023-01-22T01:51:42.348Z,34.30
2023-01-22T01:54:11.579Z,30.10
2023-01-22T01:56:41.338Z,31.10
2023-01-22T01:59:10.561Z,29.80
2023-01-22T02:01:37.437Z,33.80
2023-01-22T02:04:04.593Z,32.50
2023-01-22T02:06:31.571Z,32.80
2023-01-22T02:09:00.530Z,31.40
2023-01-22T02:11:27.624Z,31.00
2023-01-22T02:14:01.590Z,34.30
2023-01-22T02:16:28.678Z,32.90
2023-01-22T02:18:55.795Z,32.30
2023-01-22T02:21:32.898Z,32.20
2023-01-22T02:23:59.820Z,33.00
2023-01-22T02:26:27.240Z,31.00
2023-01-22T02:28:54.231Z,32.60
2023-01-22T02:31:22.359Z,32.70
2023-01-22T02:33:50.247Z,32.10
2023-01-22T02:36:17.258Z,33.40
2023-01-22T02:38:44.175Z,33.80
2023-01-22T02:41:11.219Z,34.90
2023-01-22T02:43:38.465Z,32.70
2023-01-22T02:46:05.896Z,35.00
2023-01-22T02:48:32.823Z,33.70
2023-01-22T02:50:59.841Z,35.00
2023-01-22T02:53:27.020Z,35.40
2023-01-22T02:55:54.010Z,32.60
2023-01-22T02:58:21.612Z,34.40
2023-01-22T03:00:48.590Z,32.00
2023-01-22T03:03:18.344Z,32.40
2023-01-22T03:05:51.682Z,30.20
2023-01-22T03:08:19.029Z,31.70
2023-01-22T03:10:46.084Z,30.00
2023-01-22T03:13:31.899Z,28.60
2023-01-22T03:16:18.576Z,29.30
2023-01-22T03:19:04.143Z,29.50
2023-01-22T03:21:31.096Z,29.00
2023-01-22T03:23:57.978Z,29.00
2023-01-22T03:26:25.572Z,28.30
2023-01-22T03:28:53.237Z,27.00
2023-01-22T03:31:21.004Z,26.70
2023-01-22T03:33:47.989Z,27.80
2023-01-22T03:36:15.073Z,24.00
2023-01-22T03:38:46.320Z,23.60
2023-01-22T03:41:17.021Z,26.20
2023-01-22T03:43:45.107Z,24.90
2023-01-22T03:46:16.607Z,23.00
2023-01-22T03:48:45.786Z,25.50
2023-01-22T03:51:16.442Z,25.60
2023-01-22T03:53:44.104Z,22.80
2023-01-22T03:56:13.214Z,25.10
2023-01-22T03:58:40.132Z,23.60
2023-01-22T04:01:18.678Z,23.70
2023-01-22T04:03:45.700Z,20.90
2023-01-22T04:06:13.031Z,21.60
2023-01-22T04:08:41.791Z,23.40
2023-01-22T04:11:09.466Z,21.60
2023-01-22T04:13:37.843Z,23.70
2023-01-22T04:16:05.918Z,22.20
2023-01-22T04:18:53.072Z,21.00
2023-01-22T04:21:30.647Z,21.00
2023-01-22T04:24:00.254Z,21.10
2023-01-22T04:26:27.165Z,21.50
2023-01-22T04:28:56.173Z,20.40
2023-01-22T04:31:24.297Z,21.90
2023-01-22T04:34:14.148Z,21.70
2023-01-22T04:36:48.831Z,22.80
2023-01-22T04:39:17.882Z,21.60
2023-01-22T04:41:44.814Z,19.90
2023-01-22T04:44:11.873Z,19.50
2023-01-22T04:46:40.552Z,23.00
2023-01-22T04:49:07.804Z,23.00
2023-01-22T04:51:35.325Z,21.80
2023-01-22T04:54:02.310Z,22.10
2023-01-22T04:56:29.237Z,22.00
2023-01-22T04:58:56.240Z,21.70
2023-01-22T05:01:23.371Z,25.80
2023-01-22T05:03:50.565Z,22.00
2023-01-22T05:06:17.522Z,23.20
2023-01-22T05:08:44.448Z,22.40
2023-01-22T05:11:11.441Z,21.80
2023-01-22T05:13:52.193Z,19.80
2023-01-22T05:16:19.462Z,19.80
2023-01-22T05:18:47.255Z,20.10
2023-01-22T05:21:14.708Z,19.90
2023-01-22T05:23:41.667Z,20.20
2023-01-22T05:26:08.636Z,23.60
2023-01-22T05:28:49.657Z,23.40
2023-01-22T05:31:22.101Z,22.40
2023-01-22T05:34:11.543Z,21.70
2023-01-22T05:36:38.517Z,24.10
2023-01-22T05:39:15.243Z,23.10
2023-01-22T05:41:42.340Z,24.30
2023-01-22T05:44:13.307Z,22.50
2023-01-22T05:46:41.161Z,23.70
2023-01-22T05:49:19.788Z,24.60
2023-01-22T05:51:46.828Z,22.20
2023-01-22T05:54:14.368Z,21.80
2023-01-22T05:56:42.944Z,24.60
2023-01-22T05:59:11.116Z,20.70
2023-01-22T06:01:38.571Z,21.20
2023-01-22T06:04:05.704Z,24.50
2023-01-22T06:06:32.645Z,22.20
2023-01-22T06:08:59.908Z,22.40
2023-01-22T06:11:30.936Z,23.60
2023-01-22T06:13:58.196Z,24.60
2023-01-22T06:16:25.154Z,24.70
2023-01-22T06:19:06.689Z,24.70
2023-01-22T06:21:40.850Z,22.60
2023-01-22T06:24:08.455Z,22.80
2023-01-22T06:26:35.869Z,23.00
2023-01-22T06:29:03.254Z,24.20
2023-01-22T06:31:31.667Z,24.70
2023-01-22T06:33:58.706Z,22.70
2023-01-22T06:36:25.778Z,24.20
2023-01-22T06:38:53.089Z,23.90
2023-01-22T06:41:28.572Z,24.00
2023-01-22T06:43:57.995Z,27.20
2023-01-22T06:46:24.899Z,25.60
2023-01-22T06:49:01.739Z,30.30
2023-01-22T06:51:29.846Z,27.80
2023-01-22T06:53:56.968Z,27.90
2023-01-22T06:56:23.995Z,27.60
2023-01-22T06:58:51.047Z,26.50
2023-01-22T07:01:18.036Z,27.50
2023-01-22T10:26:41.767Z,29.30
2023-01-22T10:29:15.767Z,29.00
2023-01-22T10:31:47.334Z,26.50
2023-01-22T10:34:17.011Z,28.30
2023-01-22T10:36:52.032Z,25.70
2023-01-22T10:39:19.137Z,26.90
2023-01-22T10:41:46.942Z,26.50
2023-01-22T10:44:21.806Z,25.40
2023-01-22T10:46:50.014Z,22.20
2023-01-22T10:49:27.320Z,21.50
2023-01-22T10:51:59.296Z,22.00
2023-01-22T10:54:32.185Z,20.20
2023-01-22T10:57:19.236Z,22.60
2023-01-22T11:00:18.996Z,22.80
2023-01-22T11:02:47.422Z,23.00
2023-01-22T11:05:18.911Z,21.20
2023-01-22T11:08:05.505Z,21.60
2023-01-22T11:10:41.536Z,18.50
2023-01-22T11:13:17.050Z,22.00
2023-01-22T11:15:45.191Z,23.40
2023-01-22T11:18:17.203Z,23.00
2023-01-22T11:20:50.177Z,21.80
2023-01-22T11:23:33.435Z,21.40
2023-01-22T11:26:15.978Z,20.60
2023-01-22T11:28:51.953Z,22.00
2023-01-22T11:31:43.549Z,22.30
2023-01-22T11:34:10.632Z,20.60
2023-01-22T11:36:41.658Z,21.10
2023-01-22T11:39:30.817Z,18.30
2023-01-22T11:42:00.822Z,17.80
2023-01-22T11:44:40.614Z,17.10
2023-01-22T11:47:16.882Z,16.20
2023-01-22T11:50:02.719Z,16.80
2023-01-22T11:53:04.902Z,16.00
2023-01-22T11:55:47.004Z,18.00
2023-01-22T11:58:24.311Z,16.90
2023-01-22T12:00:57.333Z,18.60
2023-01-22T12:03:36.570Z,18.10
2023-01-22T12:06:28.497Z,17.50
2023-01-22T12:12:06.723Z,15.90
2023-01-22T12:14:52.561Z,16.40
2023-01-22T12:17:58.073Z,15.50
2023-01-22T12:20:50.953Z,15.90
2023-01-22T12:23:27.837Z,15.30
2023-01-22T12:26:07.065Z,18.80
2023-01-22T12:28:40.667Z,20.30
2023-01-22T12:31:27.738Z,18.00
2023-01-22T12:33:54.899Z,16.90
2023-01-22T12:36:23.230Z,15.90
2023-01-22T12:39:11.873Z,17.30
2023-01-22T12:41:47.852Z,16.80
2023-01-22T12:44:36.577Z,16.40
2023-01-22T12:47:26.879Z,16.60
2023-01-22T12:49:53.842Z,16.30
2023-01-22T12:52:37.561Z,16.20
2023-01-22T12:55:32.100Z,14.90
2023-01-22T12:57:59.136Z,13.90
2023-01-22T13:00:45.827Z,15.60
2023-01-22T13:03:33.302Z,15.60
2023-01-22T13:06:02.220Z,15.60
2023-01-22T13:08:41.010Z,16.30
2023-01-22T13:11:26.631Z,18.50
2023-01-22T13:14:18.663Z,20.30
2023-01-22T13:16:54.807Z,18.20
2023-01-22T13:19:22.919Z,20.00
2023-01-22T13:21:50.022Z,16.80
2023-01-22T13:24:19.027Z,20.50
2023-01-22T13:26:57.389Z,18.00
2023-01-22T13:29:28.185Z,17.00
2023-01-22T13:32:00.451Z,17.20
2023-01-22T13:34:27.950Z,17.00
2023-01-22T13:36:55.698Z,17.10
2023-01-22T13:39:28.522Z,17.90
2023-01-22T13:41:59.904Z,17.70
2023-01-22T13:44:38.321Z,16.60
2023-01-22T13:47:05.388Z,17.20
2023-01-22T13:49:33.229Z,16.40
2023-01-22T13:52:03.391Z,15.80
2023-01-22T13:54:40.099Z,18.40
2023-01-22T13:57:07.146Z,19.50
2023-01-22T13:59:37.009Z,17.70
2023-01-22T14:02:19.651Z,18.90
2023-01-22T14:04:47.073Z,18.00
2023-01-22T14:07:44.367Z,19.20
2023-01-22T14:10:19.643Z,17.30
2023-01-22T14:12:46.826Z,17.70
2023-01-22T14:15:18.516Z,18.20
2023-01-22T14:20:12.649Z,20.70
2023-01-22T14:22:39.579Z,19.10
2023-01-22T14:25:06.890Z,19.20
2023-01-22T14:27:45.319Z,18.40
2023-01-22T14:30:14.829Z,19.30
2023-01-22T14:32:42.541Z,19.50
2023-01-22T14:35:17.169Z,19.00
2023-01-22T14:37:44.375Z,19.50
2023-01-22T14:40:12.833Z,19.60
2023-01-22T14:42:39.989Z,19.50
2023-01-22T14:45:07.744Z,19.80
2023-01-22T14:47:34.955Z,20.50
2023-01-22T14:50:02.590Z,24.90
2023-01-22T14:52:29.530Z,23.40
2023-01-22T14:54:56.440Z,25.00
2023-01-22T14:57:23.830Z,26.60
2023-01-22T14:59:50.907Z,23.40
2023-01-22T15:02:18.330Z,23.30
2023-01-22T15:04:45.755Z,22.70
2023-01-22T15:07:12.717Z,22.20
2023-01-22T15:09:39.782Z,22.10
2023-01-22T15:12:07.216Z,20.70
2023-01-22T15:14:34.168Z,20.90
2023-01-22T15:17:01.086Z,20.00
2023-01-22T15:19:30.663Z,21.70
2023-01-22T15:22:03.767Z,22.60
2023-01-22T15:24:30.626Z,26.40
2023-01-22T15:26:57.569Z,25.70
2023-01-22T15:29:24.436Z,25.60
2023-01-22T15:31:51.395Z,25.30
2023-01-22T15:34:18.387Z,23.40
2023-01-22T15:36:45.372Z,23.60
2023-01-22T15:39:12.389Z,21.30
2023-01-22T15:41:39.380Z,22.70
2023-01-22T15:44:06.461Z,25.80
2023-01-22T15:46:37.452Z,22.30
2023-01-22T15:49:05.379Z,22.80
2023-01-22T15:51:32.501Z,22.10
2023-01-22T15:54:01.365Z,22.50
2023-01-22T15:56:30.024Z,19.00
2023-01-22T15:58:57.179Z,19.80
2023-01-22T16:01:24.622Z,20.60
2023-01-22T16:03:51.768Z,21.00
2023-01-22T16:06:22.615Z,21.90
2023-01-22T16:08:50.959Z,21.70
2023-01-22T16:11:17.954Z,19.00
2023-01-22T16:13:44.994Z,20.10
2023-01-22T16:16:20.598Z,20.90
2023-01-22T16:18:48.095Z,23.50
2023-01-22T16:21:15.270Z,20.60
2023-01-22T16:23:43.326Z,19.90
2023-01-22T16:26:16.449Z,19.70
2023-01-22T16:28:43.978Z,18.40
2023-01-22T16:31:12.767Z,19.00
2023-01-22T16:33:42.420Z,21.00
2023-01-22T16:36:14.770Z,20.50
2023-01-22T16:38:41.924Z,20.00
2023-01-22T16:41:24.491Z,20.40
2023-01-22T16:43:52.708Z,18.90
2023-01-22T16:46:22.114Z,18.70
2023-01-22T16:48:49.419Z,20.90
2023-01-22T16:51:21.123Z,19.50
2023-01-22T16:53:49.119Z,21.00
2023-01-22T16:56:16.058Z,20.30
2023-01-22T16:58:43.086Z,18.80
2023-01-22T17:01:12.578Z,18.90
2023-01-22T17:03:39.679Z,19.40
2023-01-22T17:06:06.808Z,22.20
2023-01-22T17:08:33.874Z,21.60
2023-01-22T17:11:00.965Z,22.20
2023-01-22T17:13:29.811Z,21.20
2023-01-22T17:15:56.764Z,20.30
2023-01-22T17:18:23.764Z,18.20
2023-01-22T17:21:01.670Z,18.20
2023-01-22T17:23:29.162Z,16.70
2023-01-22T17:25:56.215Z,19.90
2023-01-22T17:28:23.173Z,19.30
2023-01-22T17:30:50.251Z,17.10
2023-01-22T17:33:19.932Z,17.80
2023-01-22T17:35:46.866Z,21.00
2023-01-22T17:38:14.596Z,19.00
2023-01-22T17:40:43.217Z,18.90
2023-01-22T17:43:10.219Z,20.90
2023-01-22T17:45:40.228Z,18.20
2023-01-22T17:48:07.257Z,21.00
2023-01-22T17:50:34.199Z,21.40
2023-01-22T17:53:01.228Z,21.60
2023-01-22T17:55:31.322Z,21.10
2023-01-22T17:57:59.870Z,20.80
2023-01-22T18:00:26.813Z,21.30
2023-01-22T18:02:53.859Z,20.00
2023-01-22T18:05:22.922Z,20.00
2023-01-22T18:07:49.859Z,20.30
2023-01-22T18:10:17.121Z,19.60
2023-01-22T18:12:44.667Z,19.00
2023-01-22T18:15:11.921Z,20.60
2023-01-22T18:17:38.893Z,20.90
2023-01-22T18:20:06.932Z,22.50
2023-01-22T18:22:33.863Z,24.10
2023-01-22T18:25:00.809Z,23.80
2023-01-22T18:27:27.840Z,20.50
2023-01-22T18:29:54.778Z,20.40
2023-01-22T18:32:22.647Z,19.00
2023-01-22T18:34:49.667Z,19.10
2023-01-22T18:37:16.590Z,19.10
2023-01-22T18:39:43.802Z,18.00
2023-01-22T18:42:10.668Z,17.00
2023-01-22T18:44:38.913Z,17.90
2023-01-22T18:47:11.194Z,18.70
2023-01-22T18:49:38.163Z,17.60
2023-01-22T18:52:05.185Z,19.50
2023-01-22T18:54:32.885Z,20.10
2023-01-22T18:56:59.902Z,20.50
2023-01-22T18:59:26.792Z,16.40
2023-01-22T19:01:53.796Z,20.40
2023-01-22T19:04:22.080Z,19.00
2023-01-22T19:06:53.276Z,21.70
2023-01-22T19:09:20.550Z,18.90
2023-01-22T19:11:48.284Z,18.70
2023-01-22T19:14:19.168Z,20.80
2023-01-22T19:16:50.024Z,17.10
2023-01-22T19:19:17.384Z,21.70
2023-01-22T19:21:47.231Z,21.00
2023-01-22T19:24:16.049Z,18.80
2023-01-22T19:26:43.624Z,18.50
2023-01-22T19:29:13.443Z,20.30
2023-01-22T19:31:42.119Z,18.70
2023-01-22T19:34:10.285Z,18.40
2023-01-22T19:36:39.026Z,18.50
2023-01-22T19:39:10.167Z,21.10
2023-01-22T19:41:38.482Z,19.90
2023-01-22T19:44:05.681Z,18.60
2023-01-22T19:46:32.882Z,20.30
2023-01-22T19:49:00.041Z,20.00
2023-01-22T19:51:27.586Z,20.40
2023-01-22T19:53:54.970Z,22.60
2023-01-22T19:56:24.156Z,22.10
2023-01-22T19:58:51.745Z,21.80
2023-01-22T20:01:18.976Z,19.60
2023-01-22T20:03:46.094Z,19.00
2023-01-22T20:06:13.560Z,20.10
2023-01-22T20:08:40.728Z,20.40
2023-01-22T20:11:09.452Z,19.20
2023-01-22T20:13:36.616Z,18.30
2023-01-22T20:16:04.043Z,20.00
2023-01-22T20:18:31.624Z,18.80
2023-01-22T20:21:01.189Z,19.10
2023-01-22T20:23:28.958Z,17.80
2023-01-22T20:25:56.284Z,19.80
2023-01-22T20:28:23.448Z,16.90
2023-01-22T20:30:58.483Z,18.00
2023-01-22T20:33:25.770Z,17.40
2023-01-22T20:36:03.742Z,18.50
2023-01-22T20:38:30.778Z,18.10
2023-01-22T20:41:02.397Z,17.60
2023-01-22T20:46:06.204Z,18.50
2023-01-22T20:48:33.642Z,18.60
2023-01-22T20:51:00.797Z,18.00
2023-01-22T20:53:28.000Z,17.20
2023-01-22T20:56:17.510Z,18.40
2023-01-22T20:58:44.615Z,15.10
2023-01-22T21:01:16.455Z,16.00
2023-01-22T21:03:43.860Z,15.10
2023-01-22T21:06:13.856Z,16.90
2023-01-22T21:08:42.071Z,17.80
2023-01-22T21:11:13.574Z,17.90
2023-01-22T21:13:40.593Z,17.00
2023-01-22T21:16:09.012Z,16.00
2023-01-22T21:18:36.310Z,16.30
2023-01-22T21:21:04.867Z,17.20
2023-01-22T21:23:31.784Z,16.90
2023-01-22T21:26:04.204Z,18.00
2023-01-22T21:28:31.116Z,18.50
2023-01-22T21:31:07.950Z,16.50
2023-01-22T21:33:35.130Z,19.20
2023-01-22T21:36:02.220Z,17.40
2023-01-22T21:38:29.339Z,17.20
2023-01-22T21:41:06.738Z,17.90
2023-01-22T21:44:02.760Z,18.90
2023-01-22T21:46:42.815Z,16.50
2023-01-22T21:49:17.379Z,17.90
2023-01-22T21:51:52.315Z,17.10
2023-01-22T21:54:24.386Z,17.10
2023-01-22T21:56:51.689Z,16.90
2023-01-22T21:59:19.062Z,17.70
2023-01-22T22:01:46.364Z,18.50
2023-01-22T22:04:13.717Z,14.70
2023-01-22T22:06:40.791Z,15.10
